Buena Vista, CO (81211)

7:14 PM MDT on August 30, 2014 (GMT -0600)
NW of Buena Vista | Change Station
CLOSE
Current Station
Personal Weather Station
Location: Buena Vista, CO
Elevation: 8200 ft
Nearby Weather Stations

Elev 8200 ft 38.86 °N, 106.17 °W | Updated 43 seconds ago

Mostly Cloudy
Mostly Cloudy
57.1 °F
Feels Like 57.1 °F
N
0.0
Wind Variable Wind from NNW
Gusts 2.0 mph

Today
High -- | Low -- °F
--% Chance of Precip.
Yesterday
High -- | Low -- °F
Precip. -- in
6:31 AM 7:37 PM
Waxing Crescent, 26% visible
Pressure 30.21 in
Visibility 10.0 miles
Clouds Scattered Clouds 7500 ft
Mostly Cloudy 10000 ft
Mostly Cloudy 12000 ft
Dew Point 46 °F
Humidity 66%
Rainfall 0.00 in
Snow Depth 1 in
UV 0 out of 12
Pollen 10.20 out of 12
Air Quality Not available.
Flu Activity Not available.
METAR KAEJ 310055Z AUTO 29009KT 10SM SCT075 BKN100 BKN120 17/05 A3021 RMK AO2 T01660045

More Conditions Fewer Conditions

Pressure 30.21 in
Visibility 10.0 miles
Clouds Scattered Clouds 7500 ft
Mostly Cloudy 10000 ft
Mostly Cloudy 12000 ft
Dew Point 46 °F
Humidity 66%
Rainfall 0.00 in
Snow Depth 1 in
UV 0 out of 12
Pollen 10.20 out of 12
Air Quality Not available.
Flu Activity Not available.
METAR KAEJ 310055Z AUTO 29009KT 10SM SCT075 BKN100 BKN120 17/05 A3021 RMK AO2 T01660045

More Conditions Fewer Conditions

10-Day Weather Forecast

Almanac

Astronomy

Aug. 30, 2014 Rise Set
Actual Time 6:31 AM MDT 7:37 PM MDT
Civil Twilight 6:04 AM MDT 8:05 PM MDT
Nautical Twilight 5:31 AM MDT 8:37 PM MDT
Astronomical Twilight 4:57 AM MDT 9:11 PM MDT
Moon 11:18 AM MDT (8/30) 10:17 PM MDT (8/30)
Length of Visible Light 14h 00m
Length of Day
13h 05m
Tomorrow will be 2m 23s shorter.
Waxing Crescent, 26% of the Moon is Illuminated
Today
Waxing Crescent
Sep 2
First Quarter
Sep 8
Full
Sep 15
Last Quarter
Sep 24
New

Today's Extremes

State Highs State Lows

Community

WunderPhotos

Upload Photos

1,748,706 photos uploaded!

Nearby

Snow Depth

Station Depth Elevation
Rough And Tumble 1 in 10360 ft
Brumley 0 in 10600 ft
Independence Pass 188 in 10600 ft
Ivanhoe 0 in 10400 ft
Kiln 0 in 9600 ft

Earthquake Activity

City Distance Mag. Time & Date
No recent earthquake activity has been reported nearby.
Minimum magnitude displayed is 2.5.

Coastal Water Temperatures

Place Temperature
No Stations Reporting

Nearby Weather Stations